Time;durP1;ratioP1;P1;durP2;ratioP2;P2;SDS_P1;SDS_P2;PMS_P1;PMS_P2;Temp;Humidity;BMP_temperature;BMP_pressure;BME280_temperature;BME280_humidity;BME280_pressure;Samples;Min_cycle;Max_cycle;Signal;HPM_P1;HPM_P2
2022/05/31 00:02:12;;;;;;;0.60;0.60;;;7.40;99.90;;;;;;5014502;28;20080;-77
2022/05/31 00:04:38;;;;;;;0.60;0.60;;;7.40;99.90;;;;;;5024905;28;20510;-80
2022/05/31 00:07:04;;;;;;;0.50;0.50;;;7.30;99.90;;;;;;4999220;28;20033;-81
2022/05/31 00:09:31;;;;;;;0.57;0.57;;;7.40;99.90;;;;;;5023220;28;20053;-77
2022/05/31 00:11:57;;;;;;;0.40;0.40;;;7.40;99.90;;;;;;5002464;28;20053;-79
2022/05/31 00:14:24;;;;;;;0.50;0.50;;;7.40;99.90;;;;;;5005491;28;20049;-77
2022/05/31 00:16:51;;;;;;;0.40;0.40;;;7.50;99.90;;;;;;5016605;28;20041;-79
2022/05/31 00:19:18;;;;;;;0.40;0.40;;;7.40;99.90;;;;;;5014958;28;20069;-78
2022/05/31 00:22:09;;;;;;;0.60;0.60;;;7.30;99.90;;;;;;5032528;28;20037;-80
2022/05/31 00:24:39;;;;;;;0.60;0.60;;;7.30;99.90;;;;;;5002481;28;20045;-78
2022/05/31 00:27:09;;;;;;;0.60;0.60;;;7.30;99.90;;;;;;5023933;28;20398;-78
2022/05/31 00:29:35;;;;;;;0.50;0.50;;;7.40;99.90;;;;;;5017507;28;20048;-78
2022/05/31 00:32:04;;;;;;;0.50;0.50;;;7.40;99.90;;;;;;5032115;28;20063;-78
2022/05/31 00:34:33;;;;;;;0.40;0.40;;;7.40;99.90;;;;;;5030766;28;20045;-76
2022/05/31 00:37:00;;;;;;;0.50;0.50;;;7.50;99.90;;;;;;5005666;28;20380;-78
2022/05/31 00:39:26;;;;;;;0.50;0.50;;;7.50;99.90;;;;;;5012080;28;20486;-79
2022/05/31 00:42:06;;;;;;;0.40;0.40;;;7.50;99.90;;;;;;5021555;28;20056;-78
2022/05/31 00:44:33;;;;;;;0.55;0.55;;;7.60;99.90;;;;;;5042038;28;20050;-77
2022/05/31 00:47:30;;;;;;;0.47;0.47;;;7.60;99.90;;;;;;5022229;28;20042;-80
2022/05/31 00:50:00;;;;;;;0.50;0.50;;;7.60;99.90;;;;;;5028193;28;20076;-79
2022/05/31 00:52:42;;;;;;;0.40;0.40;;;7.70;99.90;;;;;;5013156;28;20132;-78
2022/05/31 00:55:13;;;;;;;0.57;0.57;;;7.60;99.90;;;;;;5034316;28;20095;-76
2022/05/31 00:57:49;;;;;;;0.40;0.40;;;7.60;99.90;;;;;;5034271;28;20041;-78
2022/05/31 01:00:15;;;;;;;0.38;0.38;;;7.70;99.90;;;;;;5034442;28;20044;-78
2022/05/31 01:02:43;;;;;;;0.52;0.52;;;7.70;99.90;;;;;;5034091;28;20077;-77
2022/05/31 01:05:12;;;;;;;0.50;0.50;;;7.70;99.90;;;;;;5034502;28;20482;-80
2022/05/31 01:07:39;;;;;;;0.50;0.50;;;7.70;99.90;;;;;;5003507;28;20049;-78
2022/05/31 01:10:08;;;;;;;0.50;0.50;;;7.80;99.90;;;;;;5028191;28;20059;-78
2022/05/31 01:12:42;;;;;;;0.60;0.60;;;7.80;99.90;;;;;;5014557;28;20056;-80
2022/05/31 01:15:10;;;;;;;0.60;0.60;;;7.90;99.90;;;;;;4998390;28;20042;-78
2022/05/31 01:17:42;;;;;;;0.50;0.50;;;7.90;99.90;;;;;;5032458;28;20067;-78
2022/05/31 01:20:19;;;;;;;0.43;0.43;;;7.90;99.90;;;;;;5031982;28;20394;-78
2022/05/31 01:22:51;;;;;;;0.40;0.40;;;8.00;99.90;;;;;;5022413;28;20052;-77
2022/05/31 01:25:35;;;;;;;0.40;0.40;;;8.00;99.90;;;;;;5031769;28;20079;-79
2022/05/31 01:28:10;;;;;;;0.50;0.50;;;8.00;99.90;;;;;;5034686;28;20055;-78
2022/05/31 01:30:42;;;;;;;0.47;0.47;;;8.10;99.90;;;;;;5024780;28;20100;-77
2022/05/31 01:33:20;;;;;;;0.52;0.52;;;8.00;99.90;;;;;;5032131;28;20681;-79
2022/05/31 01:35:46;;;;;;;0.50;0.50;;;8.10;99.90;;;;;;5002309;28;20054;-76
2022/05/31 01:38:19;;;;;;;0.43;0.43;;;8.10;99.90;;;;;;5023934;28;20380;-79
2022/05/31 01:41:21;;;;;;;0.40;0.40;;;8.10;99.90;;;;;;5013888;28;20078;-79
2022/05/31 01:43:51;;;;;;;0.50;0.50;;;8.10;99.90;;;;;;5021560;28;20133;-78
2022/05/31 01:46:25;;;;;;;0.50;0.50;;;8.10;99.90;;;;;;5002277;28;20057;-79
2022/05/31 01:48:51;;;;;;;0.40;0.40;;;8.10;99.90;;;;;;5028371;28;20073;-79
2022/05/31 01:51:17;;;;;;;0.50;0.50;;;8.10;99.90;;;;;;5024909;28;20394;-77
2022/05/31 01:53:43;;;;;;;0.50;0.50;;;8.10;99.90;;;;;;5042215;28;20052;-79
2022/05/31 01:56:11;;;;;;;0.40;0.40;;;8.10;99.90;;;;;;5018009;28;20513;-79
2022/05/31 01:58:40;;;;;;;0.50;0.50;;;8.20;99.90;;;;;;5051119;28;20080;-79
2022/05/31 02:01:08;;;;;;;0.50;0.50;;;8.10;99.90;;;;;;5018723;28;20386;-80
2022/05/31 02:03:34;;;;;;;0.50;0.50;;;8.20;99.90;;;;;;5017650;28;20407;-80
2022/05/31 02:05:59;;;;;;;0.50;0.50;;;8.10;99.90;;;;;;5018458;28;20037;-77
2022/05/31 02:08:30;;;;;;;0.47;0.47;;;8.10;99.90;;;;;;5017947;28;20465;-78
2022/05/31 02:10:57;;;;;;;0.50;0.50;;;8.20;99.90;;;;;;5031078;28;20049;-80
2022/05/31 02:13:27;;;;;;;0.30;0.30;;;8.10;99.90;;;;;;5001889;28;20443;-80
2022/05/31 02:15:54;;;;;;;0.50;0.50;;;8.20;99.90;;;;;;5036493;28;20052;-80
2022/05/31 02:18:22;;;;;;;0.50;0.50;;;8.20;99.90;;;;;;5067463;28;20045;-78
2022/05/31 02:20:51;;;;;;;0.52;0.52;;;8.20;99.90;;;;;;5037898;28;20112;-79
2022/05/31 02:23:16;;;;;;;0.50;0.50;;;8.20;99.90;;;;;;5037178;28;20076;-78
2022/05/31 02:25:42;;;;;;;0.50;0.50;;;8.30;99.90;;;;;;5019729;28;20045;-78
2022/05/31 02:28:08;;;;;;;0.47;0.47;;;8.20;99.90;;;;;;5050186;28;20041;-79
2022/05/31 02:30:35;;;;;;;0.47;0.47;;;8.30;99.90;;;;;;5012129;28;20422;-79
2022/05/31 02:33:00;;;;;;;0.40;0.40;;;8.30;99.90;;;;;;5020335;28;20053;-80
2022/05/31 02:35:26;;;;;;;0.52;0.52;;;8.20;99.90;;;;;;4995966;28;20461;-78
2022/05/31 02:37:52;;;;;;;0.40;0.40;;;8.20;99.90;;;;;;5003672;28;20124;-77
2022/05/31 02:40:18;;;;;;;;;;;8.30;99.90;;;;;;5040145;28;20045;-79
2022/05/31 02:42:44;;;;;;;0.50;0.50;;;8.30;99.90;;;;;;5044220;28;19917;-78
2022/05/31 02:45:10;;;;;;;0.60;0.60;;;8.20;99.90;;;;;;5027143;28;20540;-79
2022/05/31 02:47:39;;;;;;;;;;;8.30;99.90;;;;;;5001094;28;20056;-79
2022/05/31 02:50:05;;;;;;;0.40;0.40;;;8.20;99.90;;;;;;5038307;28;20365;-78
2022/05/31 02:52:31;;;;;;;;;;;8.30;99.90;;;;;;5017857;28;20049;-79
2022/05/31 02:54:57;;;;;;;0.50;0.50;;;8.30;99.90;;;;;;5034119;28;19924;-77
2022/05/31 02:57:23;;;;;;;0.47;0.47;;;8.30;99.90;;;;;;5017292;28;20482;-77
2022/05/31 02:59:48;;;;;;;0.60;0.60;;;8.30;99.90;;;;;;5009397;28;20044;-77
2022/05/31 03:02:15;;;;;;;0.55;0.55;;;8.30;99.90;;;;;;5018841;28;20042;-80
2022/05/31 03:04:41;;;;;;;0.50;0.50;;;8.30;99.90;;;;;;5017889;28;20095;-79
2022/05/31 03:07:09;;;;;;;;;;;8.30;99.90;;;;;;5021276;28;20053;-78
2022/05/31 03:09:34;;;;;;;0.50;0.50;;;8.30;99.90;;;;;;5016907;28;19917;-80
2022/05/31 03:12:09;;;;;;;0.45;0.45;;;8.30;99.90;;;;;;5052878;28;20049;-77
2022/05/31 03:15:00;;;;;;;0.50;0.50;;;8.30;99.90;;;;;;5052601;28;20043;-77
2022/05/31 03:17:32;;;;;;;0.50;0.50;;;8.30;99.90;;;;;;5027896;28;20046;-76
2022/05/31 03:20:15;;;;;;;0.50;0.50;;;8.40;99.90;;;;;;5035268;28;20371;-78
2022/05/31 03:23:02;;;;;;;0.40;0.40;;;8.30;99.90;;;;;;5035981;28;20040;-77
2022/05/31 03:25:29;;;;;;;0.40;0.40;;;8.30;99.90;;;;;;5049270;28;20039;-77
2022/05/31 03:27:59;;;;;;;0.45;0.45;;;8.30;99.90;;;;;;5022619;28;20100;-79
2022/05/31 03:30:25;;;;;;;0.40;0.40;;;8.30;99.90;;;;;;5027125;28;20098;-79
2022/05/31 03:32:53;;;;;;;;;;;8.30;99.90;;;;;;5030105;28;20067;-79
2022/05/31 03:35:18;;;;;;;0.60;0.60;;;8.30;99.90;;;;;;5048979;28;19917;-78
2022/05/31 03:37:45;;;;;;;0.50;0.50;;;8.30;99.90;;;;;;5015991;28;20045;-80
2022/05/31 03:40:55;;;;;;;0.40;0.40;;;8.30;99.90;;;;;;5058648;28;20053;-77
2022/05/31 03:43:03;;;;;;;0.40;0.40;;;8.30;99.90;;;;;;5035585;28;20065;-78
2022/05/31 03:45:37;;;;;;;0.50;0.50;;;8.30;99.90;;;;;;5022579;28;20048;-79
2022/05/31 03:48:03;;;;;;;0.65;0.65;;;8.40;99.90;;;;;;5004507;28;20094;-76
2022/05/31 03:50:29;;;;;;;0.40;0.40;;;8.30;99.90;;;;;;5018046;28;20605;-79
2022/05/31 03:52:56;;;;;;;0.50;0.50;;;8.30;99.90;;;;;;5012494;28;20065;-80
2022/05/31 03:55:22;;;;;;;0.40;0.40;;;8.30;99.90;;;;;;5028180;28;20033;-79
2022/05/31 03:57:49;;;;;;;0.40;0.40;;;8.40;99.90;;;;;;5016143;28;20072;-77
2022/05/31 04:00:16;;;;;;;0.60;0.60;;;8.40;99.90;;;;;;5000194;28;20402;-79
2022/05/31 04:02:42;;;;;;;0.32;0.32;;;8.40;99.90;;;;;;5041868;28;20055;-81
2022/05/31 04:05:08;;;;;;;0.40;0.40;;;8.50;99.90;;;;;;5022781;28;20038;-78
2022/05/31 04:07:35;;;;;;;0.40;0.40;;;8.50;99.90;;;;;;5035434;28;20124;-77
2022/05/31 04:10:05;;;;;;;0.40;0.40;;;8.60;99.90;;;;;;5012680;28;20048;-81
2022/05/31 04:12:34;;;;;;;0.47;0.47;;;8.60;99.90;;;;;;5006213;28;20094;-78
2022/05/31 04:15:01;;;;;;;0.60;0.60;;;8.70;99.90;;;;;;5034541;28;20041;-78
2022/05/31 04:17:27;;;;;;;0.50;0.50;;;8.70;99.90;;;;;;5034660;28;20049;-78
2022/05/31 04:19:52;;;;;;;;;;;8.80;99.90;;;;;;5033324;28;20052;-78
2022/05/31 04:22:18;;;;;;;0.50;0.50;;;8.80;99.90;;;;;;5015404;28;20324;-77
2022/05/31 04:24:45;;;;;;;0.40;0.40;;;8.90;99.90;;;;;;5047917;28;20045;-77
2022/05/31 04:27:15;;;;;;;0.47;0.47;;;8.90;99.90;;;;;;5016159;28;20041;-79
2022/05/31 04:29:41;;;;;;;0.50;0.50;;;9.00;99.90;;;;;;5035078;28;20052;-80
2022/05/31 04:32:07;;;;;;;0.47;0.47;;;9.00;99.90;;;;;;5035851;28;20045;-77
2022/05/31 04:34:32;;;;;;;0.40;0.40;;;9.00;99.90;;;;;;5068239;28;20076;-79
2022/05/31 04:36:58;;;;;;;0.50;0.50;;;9.00;99.90;;;;;;5042641;28;20053;-79
2022/05/31 04:39:24;;;;;;;0.47;0.47;;;9.10;99.90;;;;;;5065471;28;20039;-79
2022/05/31 04:41:49;;;;;;;0.40;0.40;;;9.10;99.90;;;;;;5035135;28;20123;-78
2022/05/31 04:44:16;;;;;;;0.40;0.40;;;9.10;99.90;;;;;;5018117;28;20057;-78
2022/05/31 04:46:43;;;;;;;0.35;0.35;;;9.20;99.90;;;;;;5025915;28;20455;-78
2022/05/31 04:49:11;;;;;;;0.50;0.50;;;9.20;99.90;;;;;;5010743;28;20064;-77
2022/05/31 04:51:37;;;;;;;0.43;0.43;;;9.20;99.90;;;;;;5023686;28;20128;-79
2022/05/31 04:54:04;;;;;;;0.47;0.47;;;9.30;99.90;;;;;;5020209;28;20072;-77
2022/05/31 04:56:30;;;;;;;0.40;0.40;;;9.40;99.90;;;;;;5015431;28;20059;-79
2022/05/31 04:58:56;;;;;;;0.40;0.40;;;9.40;99.90;;;;;;5050529;28;20559;-80
2022/05/31 05:01:23;;;;;;;0.30;0.30;;;9.40;99.90;;;;;;5009130;28;20041;-79
2022/05/31 05:03:49;;;;;;;0.40;0.40;;;9.50;99.90;;;;;;5034960;28;20037;-79
2022/05/31 05:06:17;;;;;;;0.40;0.40;;;9.50;99.90;;;;;;5027812;28;20437;-76
2022/05/31 05:08:44;;;;;;;0.70;0.70;;;9.50;99.90;;;;;;5038174;28;20106;-79
2022/05/31 05:11:13;;;;;;;0.40;0.40;;;9.60;99.90;;;;;;5024719;28;20605;-79
2022/05/31 05:13:39;;;;;;;0.40;0.40;;;9.60;99.90;;;;;;5047501;28;20058;-78
2022/05/31 05:16:06;;;;;;;0.40;0.40;;;9.70;99.90;;;;;;5014918;28;20095;-80
2022/05/31 05:18:34;;;;;;;0.40;0.40;;;9.80;99.90;;;;;;5018287;28;20045;-79
2022/05/31 05:21:01;;;;;;;0.50;0.50;;;9.80;99.90;;;;;;5040937;28;20073;-78
2022/05/31 05:23:27;;;;;;;0.40;0.40;;;9.80;99.90;;;;;;5044932;28;20041;-79
2022/05/31 05:25:56;;;;;;;0.32;0.32;;;9.80;99.90;;;;;;5014337;28;20125;-80
2022/05/31 05:31:19;;;;;;;0.50;0.50;;;10.00;99.90;;;;;;5003107;28;20052;-77
2022/05/31 05:33:45;;;;;;;0.40;0.40;;;10.10;99.90;;;;;;5034165;28;20453;-80
2022/05/31 05:36:12;;;;;;;0.20;0.20;;;10.20;99.90;;;;;;5017934;28;20390;-80
2022/05/31 05:38:38;;;;;;;0.30;0.30;;;10.30;99.90;;;;;;5008135;28;20500;-79
2022/05/31 05:41:04;;;;;;;0.30;0.30;;;10.40;99.90;;;;;;5017000;28;20033;-79
2022/05/31 05:43:30;;;;;;;0.55;0.55;;;10.50;99.90;;;;;;5041402;28;20060;-77
2022/05/31 05:45:55;;;;;;;0.40;0.40;;;10.60;99.90;;;;;;4991791;28;20076;-77
2022/05/31 05:48:21;;;;;;;0.40;0.40;;;10.70;99.90;;;;;;5006254;28;20122;-77
2022/05/31 05:50:48;;;;;;;0.50;0.50;;;10.70;99.90;;;;;;4987469;28;20108;-78
2022/05/31 05:53:13;;;;;;;0.40;0.40;;;10.70;99.90;;;;;;5060728;28;20047;-80
2022/05/31 05:55:40;;;;;;;1.00;1.00;;;10.80;99.90;;;;;;5046010;28;20477;-79
2022/05/31 05:58:09;;;;;;;0.40;0.40;;;10.80;99.90;;;;;;5025420;28;20045;-79
2022/05/31 06:00:47;;;;;;;0.32;0.32;;;10.80;99.90;;;;;;5017070;28;20124;-77
2022/05/31 06:03:52;;;;;;;0.40;0.40;;;10.90;99.90;;;;;;5050451;28;20040;-76
2022/05/31 06:06:18;;;;;;;0.40;0.40;;;11.00;99.90;;;;;;5026949;28;20102;-77
2022/05/31 06:09:01;;;;;;;0.40;0.40;;;11.10;99.90;;;;;;5032571;28;20509;-79
2022/05/31 06:11:36;;;;;;;0.30;0.30;;;11.10;99.90;;;;;;5026058;28;20045;-80
2022/05/31 06:14:30;;;;;;;0.30;0.30;;;11.10;99.90;;;;;;5047012;28;20050;-76
2022/05/31 06:16:59;;;;;;;0.30;0.30;;;11.20;99.90;;;;;;5032730;28;20044;-79
2022/05/31 06:19:37;;;;;;;0.40;0.40;;;11.30;99.90;;;;;;5022493;28;20442;-77
2022/05/31 06:22:06;;;;;;;0.30;0.30;;;11.40;99.90;;;;;;5008816;28;20091;-76
2022/05/31 06:24:33;;;;;;;0.43;0.43;;;11.50;99.90;;;;;;5021213;28;20038;-77
2022/05/31 06:26:59;;;;;;;0.45;0.45;;;11.50;99.90;;;;;;5018224;28;20416;-77
2022/05/31 06:29:27;;;;;;;0.30;0.30;;;11.60;99.90;;;;;;5017778;28;20098;-79
2022/05/31 06:31:54;;;;;;;0.38;0.38;;;11.70;99.90;;;;;;5017839;28;20781;-77
2022/05/31 06:34:23;;;;;;;0.35;0.35;;;11.80;99.90;;;;;;5003005;28;20041;-78
2022/05/31 06:36:49;;;;;;;0.30;0.30;;;11.90;99.90;;;;;;5028212;28;20038;-76
2022/05/31 06:39:16;;;;;;;0.30;0.30;;;12.10;99.90;;;;;;5014615;28;20037;-79
2022/05/31 06:41:42;;;;;;;0.40;0.40;;;12.20;99.90;;;;;;5017939;28;20050;-76
2022/05/31 06:44:07;;;;;;;0.40;0.40;;;12.30;99.90;;;;;;5047368;28;20053;-80
2022/05/31 06:46:33;;;;;;;0.20;0.20;;;12.40;99.90;;;;;;5042689;28;20041;-77
2022/05/31 06:49:00;;;;;;;0.30;0.30;;;12.50;99.90;;;;;;5052924;28;20056;-78
2022/05/31 06:56:59;;;;;;;0.32;0.32;;;12.80;99.90;;;;;;5022935;28;20052;-77
2022/05/31 06:59:25;;;;;;;0.40;0.40;;;12.90;99.90;;;;;;5029920;28;20053;-76
2022/05/31 07:01:53;;;;;;;0.30;0.30;;;13.00;99.90;;;;;;5040694;28;20037;-78
2022/05/31 07:04:19;;;;;;;0.30;0.30;;;13.20;99.90;;;;;;5035625;28;20048;-79
2022/05/31 07:06:45;;;;;;;0.22;0.22;;;13.30;99.90;;;;;;5006680;28;20486;-77
2022/05/31 07:09:12;;;;;;;;;;;13.40;99.90;;;;;;5063272;28;20044;-80
2022/05/31 07:11:38;;;;;;;0.40;0.40;;;13.50;99.90;;;;;;5017103;28;19939;-79
2022/05/31 07:14:04;;;;;;;0.45;0.45;;;13.60;99.90;;;;;;5036014;28;20052;-77
2022/05/31 07:16:30;;;;;;;0.40;0.40;;;13.70;99.90;;;;;;5036761;28;20525;-79
2022/05/31 07:18:57;;;;;;;0.32;0.32;;;13.70;99.90;;;;;;5002618;28;20063;-79
2022/05/31 07:21:24;;;;;;;0.40;0.40;;;13.80;99.90;;;;;;5056532;28;20052;-78
2022/05/31 07:23:49;;;;;;;0.30;0.30;;;13.90;99.90;;;;;;5036260;28;20444;-79
2022/05/31 07:26:15;;;;;;;0.40;0.40;;;14.10;99.90;;;;;;5037521;28;20037;-78
2022/05/31 07:28:41;;;;;;;0.32;0.32;;;14.30;99.90;;;;;;5058120;28;20051;-80
2022/05/31 07:31:07;;;;;;;0.30;0.30;;;14.50;99.90;;;;;;5039584;28;20501;-77
2022/05/31 07:33:35;;;;;;;0.30;0.30;;;14.60;99.90;;;;;;5043473;28;20110;-78
2022/05/31 07:36:05;;;;;;;0.30;0.30;;;14.50;99.90;;;;;;5018322;28;20049;-79
2022/05/31 07:38:36;;;;;;;0.30;0.30;;;14.60;99.90;;;;;;5053662;28;20040;-77
2022/05/31 07:41:02;;;;;;;0.30;0.30;;;14.70;99.90;;;;;;5070121;28;20083;-78
2022/05/31 07:43:27;;;;;;;;;;;14.80;99.90;;;;;;5036105;28;20057;-81
2022/05/31 07:46:10;;;;;;;0.30;0.30;;;14.90;99.90;;;;;;5029426;28;19925;-81
2022/05/31 07:48:37;;;;;;;0.30;0.30;;;15.00;99.90;;;;;;5015742;28;20116;-78
2022/05/31 07:51:04;;;;;;;0.40;0.40;;;14.90;99.90;;;;;;5012927;28;20376;-77
2022/05/31 07:53:30;;;;;;;0.35;0.35;;;15.00;99.90;;;;;;5015938;28;20048;-78
2022/05/31 07:56:00;;;;;;;4.18;0.52;;;15.10;99.90;;;;;;5032263;28;20045;-77
2022/05/31 07:58:32;;;;;;;0.38;0.38;;;15.20;99.90;;;;;;5024207;28;20114;-77
2022/05/31 08:01:04;;;;;;;0.40;0.40;;;15.40;99.90;;;;;;5034063;28;20036;-78
2022/05/31 08:03:30;;;;;;;0.20;0.20;;;15.70;99.90;;;;;;5018573;28;20047;-78
2022/05/31 08:06:01;;;;;;;0.38;0.38;;;15.90;99.90;;;;;;5028974;28;20053;-79
2022/05/31 08:08:26;;;;;;;0.30;0.30;;;16.10;99.90;;;;;;5030110;28;20041;-77
2022/05/31 08:10:52;;;;;;;0.32;0.32;;;16.40;99.90;;;;;;4994909;28;20079;-80
2022/05/31 08:13:18;;;;;;;;;;;16.60;99.90;;;;;;4999615;28;20395;-78
2022/05/31 08:15:43;;;;;;;0.63;0.63;;;16.60;99.90;;;;;;5039326;28;19920;-79
2022/05/31 08:18:09;;;;;;;;;;;16.60;99.90;;;;;;5035067;28;20398;-79
2022/05/31 08:20:36;;;;;;;0.40;0.40;;;16.70;99.90;;;;;;4994964;28;19920;-78
2022/05/31 08:23:02;;;;;;;0.32;0.32;;;16.70;99.90;;;;;;5048013;28;20046;-80
2022/05/31 08:25:28;;;;;;;0.40;0.40;;;16.90;99.90;;;;;;5023004;28;20044;-78
2022/05/31 08:27:55;;;;;;;;;;;17.10;99.90;;;;;;4987659;28;20046;-77
2022/05/31 08:30:22;;;;;;;0.85;0.43;;;17.20;99.90;;;;;;5031692;28;19982;-82
2022/05/31 08:32:47;;;;;;;0.30;0.30;;;17.30;99.90;;;;;;5061809;28;20049;-80
2022/05/31 08:35:13;;;;;;;0.30;0.30;;;17.40;99.90;;;;;;5026345;28;20099;-79
2022/05/31 08:37:39;;;;;;;;;;;17.70;99.90;;;;;;5017484;28;20081;-80
2022/05/31 08:40:05;;;;;;;0.52;0.52;;;17.90;99.90;;;;;;5033884;28;20377;-77
2022/05/31 08:42:58;;;;;;;0.85;0.68;;;17.90;99.90;;;;;;5067653;28;20399;-80
2022/05/31 08:45:31;;;;;;;0.50;0.50;;;17.90;99.90;;;;;;5028401;28;20512;-81
2022/05/31 08:48:26;;;;;;;0.40;0.40;;;18.00;99.90;;;;;;5001420;28;20049;-78
2022/05/31 08:57:13;;;;;;;0.40;0.40;;;17.90;99.90;;;;;;5047898;28;20045;-77
2022/05/31 09:00:12;;;;;;;0.32;0.32;;;18.00;99.90;;;;;;5052367;28;20159;-79
2022/05/31 09:02:47;;;;;;;0.50;0.50;;;17.90;99.90;;;;;;5027922;28;20079;-79
2022/05/31 09:05:23;;;;;;;0.52;0.52;;;17.90;99.90;;;;;;5042732;28;20034;-78
2022/05/31 09:08:06;;;;;;;0.40;0.40;;;17.80;99.90;;;;;;5041125;28;20099;-80
2022/05/31 09:10:45;;;;;;;0.65;0.65;;;17.80;99.90;;;;;;5060757;28;20049;-78
2022/05/31 09:13:21;;;;;;;3.00;1.25;;;17.70;99.90;;;;;;5047444;28;20041;-80
2022/05/31 09:15:55;;;;;;;0.22;0.22;;;17.60;99.90;;;;;;5041777;28;20045;-76
2022/05/31 09:18:38;;;;;;;0.68;0.50;;;17.50;99.90;;;;;;5049868;28;20500;-77
2022/05/31 09:21:12;;;;;;;0.30;0.30;;;17.40;99.90;;;;;;5050337;28;20112;-79
2022/05/31 09:23:41;;;;;;;0.47;0.47;;;17.50;99.90;;;;;;5027795;28;20491;-77
2022/05/31 09:26:11;;;;;;;0.30;0.30;;;17.60;99.90;;;;;;5027511;28;20044;-79
2022/05/31 09:28:52;;;;;;;0.32;0.32;;;17.70;99.90;;;;;;5033828;28;20045;-77
2022/05/31 09:31:37;;;;;;;0.43;0.43;;;17.80;99.90;;;;;;5034581;28;20045;-80
2022/05/31 09:34:59;;;;;;;0.30;0.30;;;17.90;99.90;;;;;;5049977;28;20438;-81
2022/05/31 09:37:57;;;;;;;0.40;0.40;;;17.90;99.90;;;;;;4951598;28;20094;-77
2022/05/31 09:40:35;;;;;;;0.40;0.40;;;17.90;99.90;;;;;;4969594;28;20091;-79
2022/05/31 09:43:26;;;;;;;0.50;0.50;;;18.00;99.90;;;;;;5013500;28;20477;-76
2022/05/31 09:46:30;;;;;;;0.30;0.30;;;18.10;99.90;;;;;;5046427;28;20376;-77
2022/05/31 09:48:56;;;;;;;0.40;0.40;;;18.20;99.90;;;;;;4987765;28;20128;-77
2022/05/31 09:51:40;;;;;;;0.20;0.20;;;18.20;99.90;;;;;;5001795;28;20160;-80
2022/05/31 09:57:06;;;;;;;0.40;0.40;;;18.00;99.90;;;;;;5013868;28;20050;-80
2022/05/31 09:59:52;;;;;;;0.40;0.40;;;18.10;99.90;;;;;;5020700;28;20056;-80
2022/05/31 10:02:31;;;;;;;0.30;0.30;;;18.20;99.90;;;;;;5050252;28;20033;-80
2022/05/31 10:05:21;;;;;;;0.35;0.35;;;18.40;99.90;;;;;;5033047;28;20028;-80
2022/05/31 10:07:48;;;;;;;0.30;0.30;;;18.70;99.90;;;;;;5029661;28;20118;-77
2022/05/31 10:10:17;;;;;;;0.20;0.20;;;19.00;99.90;;;;;;5036613;28;20541;-79
2022/05/31 10:12:58;;;;;;;0.30;0.30;;;19.20;96.70;;;;;;5034919;28;20475;-76
2022/05/31 10:15:49;;;;;;;0.25;0.25;;;19.20;97.20;;;;;;5019417;28;20045;-76
2022/05/31 10:18:43;;;;;;;0.30;0.30;;;19.00;91.40;;;;;;5036021;28;20495;-78
2022/05/31 10:21:11;;;;;;;0.30;0.30;;;18.70;91.80;;;;;;5036655;28;20136;-81
2022/05/31 10:23:44;;;;;;;0.40;0.40;;;18.60;94.90;;;;;;5054869;28;20116;-80
2022/05/31 10:26:29;;;;;;;0.30;0.30;;;18.50;95.90;;;;;;5021139;28;20049;-79
2022/05/31 10:29:16;;;;;;;0.30;0.30;;;18.50;97.10;;;;;;5027010;28;20076;-80
2022/05/31 10:31:46;;;;;;;;;;;18.50;99.90;;;;;;5054453;28;20394;-79
2022/05/31 10:34:33;;;;;;;0.30;0.30;;;18.40;96.30;;;;;;5035253;28;19971;-77
2022/05/31 10:37:01;;;;;;;0.45;0.45;;;18.40;99.90;;;;;;5027416;28;20056;-81
2022/05/31 10:39:30;;;;;;;0.40;0.40;;;18.40;95.40;;;;;;5040196;28;20053;-79
2022/05/31 10:42:07;;;;;;;0.30;0.30;;;18.30;96.20;;;;;;5024982;28;20041;-82
2022/05/31 10:44:42;;;;;;;0.25;0.25;;;18.30;99.90;;;;;;4989946;28;20072;-78
2022/05/31 10:47:18;;;;;;;0.30;0.30;;;18.10;99.90;;;;;;5022693;28;20042;-80
2022/05/31 10:49:45;;;;;;;0.30;0.30;;;17.80;93.40;;;;;;5049661;28;20052;-77
2022/05/31 10:52:31;;;;;;;0.20;0.20;;;17.60;91.70;;;;;;5050379;28;20145;-80
2022/05/31 10:54:56;;;;;;;0.20;0.20;;;17.50;93.30;;;;;;5000491;28;20045;-76
2022/05/31 10:57:29;;;;;;;;;;;17.50;99.90;;;;;;5040511;28;20398;-79
2022/05/31 11:00:20;;;;;;;0.40;0.40;;;17.50;93.90;;;;;;5036246;28;19990;-78
2022/05/31 11:03:15;;;;;;;0.50;0.50;;;17.50;95.60;;;;;;4978333;28;20053;-78
2022/05/31 11:05:52;;;;;;;0.30;0.30;;;17.50;99.90;;;;;;5012013;28;20054;-78
2022/05/31 11:11:29;;;;;;;0.28;0.28;;;17.80;96.00;;;;;;5020020;28;20075;-80
2022/05/31 11:14:32;;;;;;;0.40;0.38;;;18.10;97.00;;;;;;5034987;28;20123;-80
2022/05/31 11:17:15;;;;;;;0.38;0.38;;;18.20;97.40;;;;;;5022649;28;20103;-81
2022/05/31 11:19:49;;;;;;;0.20;0.20;;;18.30;99.10;;;;;;5039912;28;20056;-81
2022/05/31 11:22:47;;;;;;;0.30;0.30;;;18.40;98.80;;;;;;5027979;28;20041;-80
2022/05/31 11:25:22;;;;;;;0.50;0.50;;;18.50;99.90;;;;;;5022499;28;20120;-81
2022/05/31 11:28:02;;;;;;;0.30;0.30;;;18.60;98.80;;;;;;5036327;28;20055;-82
2022/05/31 11:30:38;;;;;;;0.40;0.40;;;18.80;86.20;;;;;;5041559;28;20131;-78
2022/05/31 11:33:22;;;;;;;0.40;0.40;;;18.80;93.70;;;;;;5018163;28;20045;-79
2022/05/31 11:36:17;;;;;;;0.30;0.30;;;19.00;95.70;;;;;;5051666;28;20045;-80
2022/05/31 11:39:12;;;;;;;0.30;0.30;;;19.10;91.00;;;;;;5026993;28;20098;-77
2022/05/31 11:41:47;;;;;;;0.30;0.30;;;19.40;89.90;;;;;;5012797;28;20045;-79
2022/05/31 11:44:40;;;;;;;0.45;0.45;;;19.80;92.30;;;;;;5031750;28;20058;-79
2022/05/31 11:47:32;;;;;;;0.40;0.40;;;20.20;90.10;;;;;;5021727;28;20137;-77
2022/05/31 11:50:19;;;;;;;0.32;0.32;;;20.60;86.80;;;;;;5048362;28;20037;-81
2022/05/31 11:53:07;;;;;;;1.05;1.05;;;20.70;77.30;;;;;;5051204;28;20040;-78
2022/05/31 11:55:39;;;;;;;0.30;0.30;;;20.90;98.80;;;;;;5035006;28;20044;-78
2022/05/31 11:58:30;;;;;;;0.30;0.30;;;20.90;99.90;;;;;;5033357;28;20049;-79
2022/05/31 12:01:02;;;;;;;0.28;0.28;;;20.90;88.00;;;;;;5015685;28;20498;-80
2022/05/31 12:03:31;;;;;;;0.38;0.38;;;20.70;73.90;;;;;;5015546;28;20425;-81
2022/05/31 12:06:13;;;;;;;0.68;0.57;;;20.70;83.40;;;;;;5042994;28;20132;-76
2022/05/31 12:08:48;;;;;;;0.40;0.40;;;20.70;99.90;;;;;;5031810;28;20120;-78
2022/05/31 12:11:43;;;;;;;0.50;0.50;;;20.70;95.10;;;;;;5062152;28;20057;-80
2022/05/31 12:14:11;;;;;;;0.40;0.40;;;20.70;98.10;;;;;;5005831;28;20049;-80
2022/05/31 12:16:38;;;;;;;0.60;0.60;;;20.90;84.50;;;;;;5004124;28;20049;-78
2022/05/31 12:19:11;;;;;;;0.40;0.40;;;21.10;78.00;;;;;;5014268;28;20041;-79
2022/05/31 12:21:58;;;;;;;0.22;0.22;;;21.00;74.70;;;;;;5050797;28;20045;-77
2022/05/31 12:24:33;;;;;;;0.40;0.40;;;21.00;74.20;;;;;;5022435;28;20041;-77
2022/05/31 12:27:08;;;;;;;0.30;0.30;;;21.00;69.70;;;;;;5026258;28;20490;-79
2022/05/31 12:29:52;;;;;;;0.30;0.30;;;20.90;70.70;;;;;;5036025;28;20040;-78
2022/05/31 12:32:26;;;;;;;0.40;0.40;;;20.60;82.00;;;;;;5023644;28;20042;-78
2022/05/31 12:34:52;;;;;;;0.38;0.38;;;20.40;79.60;;;;;;5014574;28;20375;-79
2022/05/31 12:37:18;;;;;;;0.30;0.30;;;20.10;78.40;;;;;;5015170;28;20112;-78
2022/05/31 12:39:46;;;;;;;0.30;0.30;;;19.80;78.90;;;;;;5009310;28;20042;-80
2022/05/31 12:42:15;;;;;;;0.20;0.20;;;19.60;75.60;;;;;;5004123;28;20044;-78
2022/05/31 12:44:48;;;;;;;0.40;0.40;;;19.30;86.20;;;;;;5058539;28;20058;-79
2022/05/31 12:47:32;;;;;;;0.80;0.80;;;18.90;77.30;;;;;;5012720;28;20048;-80
2022/05/31 12:50:08;;;;;;;0.50;0.50;;;18.60;96.70;;;;;;4992175;28;20058;-80
2022/05/31 12:55:25;;;;;;;0.40;0.40;;;17.90;91.00;;;;;;5012682;28;20088;-79
2022/05/31 12:58:29;;;;;;;0.30;0.30;;;17.60;92.60;;;;;;5016288;28;20406;-80
2022/05/31 13:01:18;;;;;;;0.30;0.30;;;17.50;91.60;;;;;;5045217;28;20050;-80
2022/05/31 13:03:53;;;;;;;0.30;0.30;;;17.40;91.20;;;;;;5018638;28;20442;-77
2022/05/31 13:06:56;;;;;;;0.30;0.30;;;17.30;91.30;;;;;;5020646;28;20501;-80
2022/05/31 13:09:25;;;;;;;0.22;0.22;;;17.20;86.80;;;;;;5008332;28;20400;-79
2022/05/31 13:20:41;;;;;;;0.40;0.40;;;17.00;92.20;;;;;;4996963;28;20503;-81
2022/05/31 13:23:06;;;;;;;0.30;0.30;;;17.10;95.90;;;;;;5027229;28;20082;-81
2022/05/31 13:25:51;;;;;;;;;;;17.20;94.50;;;;;;5013311;28;20176;-78
2022/05/31 13:28:23;;;;;;;0.40;0.40;;;17.30;93.30;;;;;;5014242;28;19921;-77
2022/05/31 13:30:50;;;;;;;0.40;0.40;;;17.40;94.10;;;;;;5018867;28;20056;-78
2022/05/31 13:33:21;;;;;;;0.30;0.30;;;17.60;96.10;;;;;;4981332;28;20458;-78
2022/05/31 13:36:13;;;;;;;0.28;0.28;;;17.70;98.50;;;;;;5014864;28;20076;-78
2022/05/31 13:38:43;;;;;;;0.25;0.25;;;17.80;92.70;;;;;;5011904;28;20510;-79
2022/05/31 13:41:15;;;;;;;0.30;0.30;;;17.90;92.20;;;;;;5029381;28;20397;-79
2022/05/31 13:43:57;;;;;;;0.40;0.40;;;18.00;93.20;;;;;;5031308;28;20042;-79
2022/05/31 13:46:42;;;;;;;0.40;0.40;;;18.10;95.30;;;;;;5015915;28;20053;-81
2022/05/31 13:49:38;;;;;;;0.70;0.70;;;18.20;93.60;;;;;;5016216;28;20053;-79
2022/05/31 13:52:27;;;;;;;0.30;0.30;;;18.20;90.00;;;;;;5026583;28;20376;-77
2022/05/31 13:55:04;;;;;;;0.30;0.30;;;18.10;92.10;;;;;;5034419;28;20407;-79
2022/05/31 13:57:30;;;;;;;0.30;0.30;;;18.20;91.50;;;;;;5033941;28;20166;-79